sensor_id;sensor_type;location;lat;lon;timestamp;P1;durP1;ratioP1;P2;durP2;ratioP2
17494;SDS011;8864;51.970;4.614;2022-11-14T00:00:23;10.80;;;5.40;;
17494;SDS011;8864;51.970;4.614;2022-11-14T00:02:51;11.23;;;5.07;;
17494;SDS011;8864;51.970;4.614;2022-11-14T00:05:18;10.23;;;5.07;;
17494;SDS011;8864;51.970;4.614;2022-11-14T00:07:46;10.13;;;5.00;;
17494;SDS011;8864;51.970;4.614;2022-11-14T00:10:14;12.50;;;5.35;;
17494;SDS011;8864;51.970;4.614;2022-11-14T00:12:42;8.75;;;4.95;;
17494;SDS011;8864;51.970;4.614;2022-11-14T00:15:09;10.70;;;5.68;;
17494;SDS011;8864;51.970;4.614;2022-11-14T00:17:37;10.95;;;5.25;;
17494;SDS011;8864;51.970;4.614;2022-11-14T00:20:05;9.02;;;4.97;;
17494;SDS011;8864;51.970;4.614;2022-11-14T00:22:33;8.75;;;4.68;;
17494;SDS011;8864;51.970;4.614;2022-11-14T00:25:00;9.95;;;4.90;;
17494;SDS011;8864;51.970;4.614;2022-11-14T00:27:28;9.30;;;5.07;;
17494;SDS011;8864;51.970;4.614;2022-11-14T00:29:55;9.77;;;5.30;;
17494;SDS011;8864;51.970;4.614;2022-11-14T00:32:22;8.95;;;4.85;;
17494;SDS011;8864;51.970;4.614;2022-11-14T00:34:48;10.77;;;4.90;;
17494;SDS011;8864;51.970;4.614;2022-11-14T00:37:15;9.13;;;4.47;;
17494;SDS011;8864;51.970;4.614;2022-11-14T00:39:42;9.63;;;4.90;;
17494;SDS011;8864;51.970;4.614;2022-11-14T00:42:09;9.90;;;4.60;;
17494;SDS011;8864;51.970;4.614;2022-11-14T00:44:37;10.38;;;4.43;;
17494;SDS011;8864;51.970;4.614;2022-11-14T00:47:04;9.70;;;4.45;;
17494;SDS011;8864;51.970;4.614;2022-11-14T00:49:30;8.90;;;4.50;;
17494;SDS011;8864;51.970;4.614;2022-11-14T00:51:57;10.27;;;4.60;;
17494;SDS011;8864;51.970;4.614;2022-11-14T00:54:24;10.63;;;4.85;;
17494;SDS011;8864;51.970;4.614;2022-11-14T00:56:51;7.68;;;4.20;;
17494;SDS011;8864;51.970;4.614;2022-11-14T00:59:18;7.60;;;4.18;;
17494;SDS011;8864;51.970;4.614;2022-11-14T01:01:46;8.48;;;4.60;;
17494;SDS011;8864;51.970;4.614;2022-11-14T01:04:13;11.25;;;4.70;;
17494;SDS011;8864;51.970;4.614;2022-11-14T01:06:40;8.13;;;4.55;;
17494;SDS011;8864;51.970;4.614;2022-11-14T01:09:07;7.38;;;4.32;;
17494;SDS011;8864;51.970;4.614;2022-11-14T01:11:34;9.15;;;4.60;;
17494;SDS011;8864;51.970;4.614;2022-11-14T01:14:00;12.85;;;4.57;;
17494;SDS011;8864;51.970;4.614;2022-11-14T01:16:30;10.75;;;4.25;;
17494;SDS011;8864;51.970;4.614;2022-11-14T01:18:58;6.57;;;3.70;;
17494;SDS011;8864;51.970;4.614;2022-11-14T01:21:25;10.60;;;4.70;;
17494;SDS011;8864;51.970;4.614;2022-11-14T01:23:52;8.50;;;4.00;;
17494;SDS011;8864;51.970;4.614;2022-11-14T01:26:19;8.68;;;3.88;;
17494;SDS011;8864;51.970;4.614;2022-11-14T01:28:45;7.95;;;3.90;;
17494;SDS011;8864;51.970;4.614;2022-11-14T01:31:14;8.93;;;3.63;;
17494;SDS011;8864;51.970;4.614;2022-11-14T01:33:42;7.32;;;3.75;;
17494;SDS011;8864;51.970;4.614;2022-11-14T01:36:11;6.72;;;3.88;;
17494;SDS011;8864;51.970;4.614;2022-11-14T01:38:37;7.88;;;3.45;;
17494;SDS011;8864;51.970;4.614;2022-11-14T01:41:04;8.35;;;3.88;;
17494;SDS011;8864;51.970;4.614;2022-11-14T01:43:32;10.80;;;3.92;;
17494;SDS011;8864;51.970;4.614;2022-11-14T01:46:01;7.90;;;3.50;;
17494;SDS011;8864;51.970;4.614;2022-11-14T01:48:31;9.82;;;3.78;;
17494;SDS011;8864;51.970;4.614;2022-11-14T01:51:02;5.93;;;3.38;;
17494;SDS011;8864;51.970;4.614;2022-11-14T01:53:39;6.95;;;3.70;;
17494;SDS011;8864;51.970;4.614;2022-11-14T01:56:06;6.82;;;3.55;;
17494;SDS011;8864;51.970;4.614;2022-11-14T01:58:35;6.13;;;3.60;;
17494;SDS011;8864;51.970;4.614;2022-11-14T02:01:06;7.15;;;3.40;;
17494;SDS011;8864;51.970;4.614;2022-11-14T02:03:35;6.85;;;3.72;;
17494;SDS011;8864;51.970;4.614;2022-11-14T02:06:06;5.82;;;3.00;;
17494;SDS011;8864;51.970;4.614;2022-11-14T02:08:35;6.13;;;3.42;;
17494;SDS011;8864;51.970;4.614;2022-11-14T02:11:03;6.07;;;3.28;;
17494;SDS011;8864;51.970;4.614;2022-11-14T02:13:30;6.13;;;3.03;;
17494;SDS011;8864;51.970;4.614;2022-11-14T02:15:57;6.88;;;3.38;;
17494;SDS011;8864;51.970;4.614;2022-11-14T02:18:24;5.50;;;3.35;;
17494;SDS011;8864;51.970;4.614;2022-11-14T02:20:53;6.20;;;3.13;;
17494;SDS011;8864;51.970;4.614;2022-11-14T02:23:26;4.75;;;3.03;;
17494;SDS011;8864;51.970;4.614;2022-11-14T02:25:54;6.22;;;3.13;;
17494;SDS011;8864;51.970;4.614;2022-11-14T02:28:21;6.38;;;3.40;;
17494;SDS011;8864;51.970;4.614;2022-11-14T02:30:48;6.32;;;3.25;;
17494;SDS011;8864;51.970;4.614;2022-11-14T02:33:15;5.25;;;3.38;;
17494;SDS011;8864;51.970;4.614;2022-11-14T02:35:42;5.72;;;3.17;;
17494;SDS011;8864;51.970;4.614;2022-11-14T02:38:10;5.97;;;2.95;;
17494;SDS011;8864;51.970;4.614;2022-11-14T02:40:37;6.65;;;3.00;;
17494;SDS011;8864;51.970;4.614;2022-11-14T02:43:04;4.55;;;3.15;;
17494;SDS011;8864;51.970;4.614;2022-11-14T02:45:31;5.40;;;3.10;;
17494;SDS011;8864;51.970;4.614;2022-11-14T02:47:57;4.95;;;2.95;;
17494;SDS011;8864;51.970;4.614;2022-11-14T02:50:25;5.10;;;2.92;;
17494;SDS011;8864;51.970;4.614;2022-11-14T02:52:52;5.45;;;2.90;;
17494;SDS011;8864;51.970;4.614;2022-11-14T02:55:20;5.70;;;3.00;;
17494;SDS011;8864;51.970;4.614;2022-11-14T02:57:47;4.95;;;3.00;;
17494;SDS011;8864;51.970;4.614;2022-11-14T03:00:14;4.45;;;2.88;;
17494;SDS011;8864;51.970;4.614;2022-11-14T03:02:41;6.57;;;3.10;;
17494;SDS011;8864;51.970;4.614;2022-11-14T03:05:08;4.53;;;2.42;;
17494;SDS011;8864;51.970;4.614;2022-11-14T03:07:35;6.93;;;3.20;;
17494;SDS011;8864;51.970;4.614;2022-11-14T03:10:02;4.07;;;2.45;;
17494;SDS011;8864;51.970;4.614;2022-11-14T03:12:30;4.75;;;2.83;;
17494;SDS011;8864;51.970;4.614;2022-11-14T03:14:57;3.40;;;2.53;;
17494;SDS011;8864;51.970;4.614;2022-11-14T03:17:23;7.70;;;3.05;;
17494;SDS011;8864;51.970;4.614;2022-11-14T03:19:50;7.28;;;2.80;;
17494;SDS011;8864;51.970;4.614;2022-11-14T03:22:17;5.10;;;3.03;;
17494;SDS011;8864;51.970;4.614;2022-11-14T03:24:44;4.75;;;2.60;;
17494;SDS011;8864;51.970;4.614;2022-11-14T03:27:11;4.88;;;2.90;;
17494;SDS011;8864;51.970;4.614;2022-11-14T03:29:39;4.20;;;2.58;;
17494;SDS011;8864;51.970;4.614;2022-11-14T03:32:06;5.53;;;2.90;;
17494;SDS011;8864;51.970;4.614;2022-11-14T03:34:32;6.55;;;3.00;;
17494;SDS011;8864;51.970;4.614;2022-11-14T03:36:59;4.45;;;2.60;;
17494;SDS011;8864;51.970;4.614;2022-11-14T03:39:26;5.65;;;3.20;;
17494;SDS011;8864;51.970;4.614;2022-11-14T03:41:53;3.90;;;2.40;;
17494;SDS011;8864;51.970;4.614;2022-11-14T03:44:20;4.35;;;2.88;;
17494;SDS011;8864;51.970;4.614;2022-11-14T03:46:48;6.30;;;3.40;;
17494;SDS011;8864;51.970;4.614;2022-11-14T03:49:16;5.80;;;2.70;;
17494;SDS011;8864;51.970;4.614;2022-11-14T03:51:42;4.22;;;3.00;;
17494;SDS011;8864;51.970;4.614;2022-11-14T03:54:09;4.20;;;2.60;;
17494;SDS011;8864;51.970;4.614;2022-11-14T03:56:36;3.90;;;2.60;;
17494;SDS011;8864;51.970;4.614;2022-11-14T03:59:03;6.60;;;2.97;;
17494;SDS011;8864;51.970;4.614;2022-11-14T04:01:30;8.85;;;3.00;;
17494;SDS011;8864;51.970;4.614;2022-11-14T04:03:58;4.10;;;2.53;;
17494;SDS011;8864;51.970;4.614;2022-11-14T04:06:24;7.00;;;2.58;;
17494;SDS011;8864;51.970;4.614;2022-11-14T04:08:51;5.35;;;2.78;;
17494;SDS011;8864;51.970;4.614;2022-11-14T04:11:20;4.53;;;2.50;;
17494;SDS011;8864;51.970;4.614;2022-11-14T04:13:47;4.85;;;2.47;;
17494;SDS011;8864;51.970;4.614;2022-11-14T04:16:14;7.18;;;2.90;;
17494;SDS011;8864;51.970;4.614;2022-11-14T04:18:41;4.45;;;2.83;;
17494;SDS011;8864;51.970;4.614;2022-11-14T04:21:09;5.15;;;2.45;;
17494;SDS011;8864;51.970;4.614;2022-11-14T04:23:36;6.60;;;2.80;;
17494;SDS011;8864;51.970;4.614;2022-11-14T04:26:02;5.15;;;2.90;;
17494;SDS011;8864;51.970;4.614;2022-11-14T04:28:29;3.70;;;2.55;;
17494;SDS011;8864;51.970;4.614;2022-11-14T04:30:56;5.68;;;2.75;;
17494;SDS011;8864;51.970;4.614;2022-11-14T04:33:24;7.55;;;2.78;;
17494;SDS011;8864;51.970;4.614;2022-11-14T04:35:51;4.30;;;2.65;;
17494;SDS011;8864;51.970;4.614;2022-11-14T04:38:19;2.67;;;2.28;;
17494;SDS011;8864;51.970;4.614;2022-11-14T04:40:49;5.15;;;3.10;;
17494;SDS011;8864;51.970;4.614;2022-11-14T04:43:16;4.20;;;2.63;;
17494;SDS011;8864;51.970;4.614;2022-11-14T04:45:43;7.30;;;2.95;;
17494;SDS011;8864;51.970;4.614;2022-11-14T04:48:10;4.65;;;2.80;;
17494;SDS011;8864;51.970;4.614;2022-11-14T04:50:37;4.88;;;2.95;;
17494;SDS011;8864;51.970;4.614;2022-11-14T04:53:04;4.55;;;2.97;;
17494;SDS011;8864;51.970;4.614;2022-11-14T04:55:32;5.65;;;2.90;;
17494;SDS011;8864;51.970;4.614;2022-11-14T04:57:59;7.32;;;2.75;;
17494;SDS011;8864;51.970;4.614;2022-11-14T05:00:26;6.72;;;2.60;;
17494;SDS011;8864;51.970;4.614;2022-11-14T05:02:53;6.63;;;2.80;;
17494;SDS011;8864;51.970;4.614;2022-11-14T05:05:20;19.67;;;3.20;;
17494;SDS011;8864;51.970;4.614;2022-11-14T05:07:47;13.45;;;2.85;;
17494;SDS011;8864;51.970;4.614;2022-11-14T05:10:13;9.18;;;3.10;;
17494;SDS011;8864;51.970;4.614;2022-11-14T05:12:42;6.07;;;2.78;;
17494;SDS011;8864;51.970;4.614;2022-11-14T05:15:09;7.07;;;3.30;;
17494;SDS011;8864;51.970;4.614;2022-11-14T05:17:36;4.13;;;2.58;;
17494;SDS011;8864;51.970;4.614;2022-11-14T05:20:03;15.25;;;2.95;;
17494;SDS011;8864;51.970;4.614;2022-11-14T05:22:30;12.05;;;3.20;;
17494;SDS011;8864;51.970;4.614;2022-11-14T05:24:57;11.10;;;3.10;;
17494;SDS011;8864;51.970;4.614;2022-11-14T05:27:23;11.75;;;3.63;;
17494;SDS011;8864;51.970;4.614;2022-11-14T05:29:51;5.93;;;2.80;;
17494;SDS011;8864;51.970;4.614;2022-11-14T05:32:19;11.27;;;3.33;;
17494;SDS011;8864;51.970;4.614;2022-11-14T05:34:46;8.38;;;3.20;;
17494;SDS011;8864;51.970;4.614;2022-11-14T05:37:13;8.65;;;3.13;;
17494;SDS011;8864;51.970;4.614;2022-11-14T05:39:39;5.45;;;3.10;;
17494;SDS011;8864;51.970;4.614;2022-11-14T05:42:06;7.93;;;3.25;;
17494;SDS011;8864;51.970;4.614;2022-11-14T05:44:33;6.97;;;3.25;;
17494;SDS011;8864;51.970;4.614;2022-11-14T05:47:01;9.15;;;3.08;;
17494;SDS011;8864;51.970;4.614;2022-11-14T05:49:28;7.22;;;3.17;;
17494;SDS011;8864;51.970;4.614;2022-11-14T05:51:55;8.10;;;3.65;;
17494;SDS011;8864;51.970;4.614;2022-11-14T05:54:21;3.97;;;2.60;;
17494;SDS011;8864;51.970;4.614;2022-11-14T05:56:48;6.55;;;3.22;;
17494;SDS011;8864;51.970;4.614;2022-11-14T05:59:15;7.25;;;3.17;;
17494;SDS011;8864;51.970;4.614;2022-11-14T06:01:42;5.72;;;3.13;;
17494;SDS011;8864;51.970;4.614;2022-11-14T06:04:10;6.50;;;2.95;;
17494;SDS011;8864;51.970;4.614;2022-11-14T06:06:38;5.75;;;2.70;;
17494;SDS011;8864;51.970;4.614;2022-11-14T06:09:05;6.53;;;2.80;;
17494;SDS011;8864;51.970;4.614;2022-11-14T06:11:32;7.03;;;3.28;;
17494;SDS011;8864;51.970;4.614;2022-11-14T06:13:59;6.78;;;3.13;;
17494;SDS011;8864;51.970;4.614;2022-11-14T06:16:26;5.95;;;3.15;;
17494;SDS011;8864;51.970;4.614;2022-11-14T06:18:53;6.53;;;2.58;;
17494;SDS011;8864;51.970;4.614;2022-11-14T06:21:23;5.53;;;3.00;;
17494;SDS011;8864;51.970;4.614;2022-11-14T06:23:51;4.65;;;2.90;;
17494;SDS011;8864;51.970;4.614;2022-11-14T06:26:19;6.00;;;3.05;;
17494;SDS011;8864;51.970;4.614;2022-11-14T06:28:47;6.32;;;3.22;;
17494;SDS011;8864;51.970;4.614;2022-11-14T06:31:14;6.43;;;2.97;;
17494;SDS011;8864;51.970;4.614;2022-11-14T06:33:41;10.73;;;3.47;;
17494;SDS011;8864;51.970;4.614;2022-11-14T06:36:09;7.43;;;3.08;;
17494;SDS011;8864;51.970;4.614;2022-11-14T06:38:38;5.53;;;3.05;;
17494;SDS011;8864;51.970;4.614;2022-11-14T06:41:06;9.15;;;3.10;;
17494;SDS011;8864;51.970;4.614;2022-11-14T06:43:35;6.32;;;3.40;;
17494;SDS011;8864;51.970;4.614;2022-11-14T06:46:03;7.72;;;3.40;;
17494;SDS011;8864;51.970;4.614;2022-11-14T06:48:31;6.00;;;3.15;;
17494;SDS011;8864;51.970;4.614;2022-11-14T06:50:59;7.43;;;3.28;;
17494;SDS011;8864;51.970;4.614;2022-11-14T06:53:27;7.10;;;3.30;;
17494;SDS011;8864;51.970;4.614;2022-11-14T06:55:57;3.88;;;2.67;;
17494;SDS011;8864;51.970;4.614;2022-11-14T06:58:25;5.97;;;3.15;;
17494;SDS011;8864;51.970;4.614;2022-11-14T07:00:52;5.18;;;2.80;;
17494;SDS011;8864;51.970;4.614;2022-11-14T07:03:20;4.97;;;3.10;;
17494;SDS011;8864;51.970;4.614;2022-11-14T07:05:47;11.07;;;3.20;;
17494;SDS011;8864;51.970;4.614;2022-11-14T07:08:14;4.45;;;3.10;;
17494;SDS011;8864;51.970;4.614;2022-11-14T07:10:40;6.13;;;3.28;;
17494;SDS011;8864;51.970;4.614;2022-11-14T07:13:09;6.15;;;2.92;;
17494;SDS011;8864;51.970;4.614;2022-11-14T07:15:36;9.38;;;3.35;;
17494;SDS011;8864;51.970;4.614;2022-11-14T07:18:03;6.72;;;3.55;;
17494;SDS011;8864;51.970;4.614;2022-11-14T07:20:30;4.85;;;2.83;;
17494;SDS011;8864;51.970;4.614;2022-11-14T07:22:56;4.93;;;3.10;;
17494;SDS011;8864;51.970;4.614;2022-11-14T07:25:23;8.07;;;3.50;;
17494;SDS011;8864;51.970;4.614;2022-11-14T07:27:50;5.97;;;3.13;;
17494;SDS011;8864;51.970;4.614;2022-11-14T07:30:18;4.97;;;3.17;;
17494;SDS011;8864;51.970;4.614;2022-11-14T07:32:45;5.07;;;3.03;;
17494;SDS011;8864;51.970;4.614;2022-11-14T07:35:12;6.03;;;3.03;;
17494;SDS011;8864;51.970;4.614;2022-11-14T07:37:39;4.63;;;2.85;;
17494;SDS011;8864;51.970;4.614;2022-11-14T07:40:06;9.15;;;3.20;;
17494;SDS011;8864;51.970;4.614;2022-11-14T07:42:33;5.22;;;3.13;;
17494;SDS011;8864;51.970;4.614;2022-11-14T07:45:00;9.07;;;3.63;;
17494;SDS011;8864;51.970;4.614;2022-11-14T07:47:28;7.15;;;3.75;;
17494;SDS011;8864;51.970;4.614;2022-11-14T07:49:55;8.70;;;3.40;;
17494;SDS011;8864;51.970;4.614;2022-11-14T07:52:22;15.52;;;3.30;;
17494;SDS011;8864;51.970;4.614;2022-11-14T07:54:49;5.35;;;3.08;;
17494;SDS011;8864;51.970;4.614;2022-11-14T07:57:15;11.68;;;3.50;;
17494;SDS011;8864;51.970;4.614;2022-11-14T07:59:42;6.18;;;3.03;;
17494;SDS011;8864;51.970;4.614;2022-11-14T08:02:10;7.32;;;3.40;;
17494;SDS011;8864;51.970;4.614;2022-11-14T08:04:40;107.22;;;14.35;;
17494;SDS011;8864;51.970;4.614;2022-11-14T08:07:07;46.38;;;7.63;;
17494;SDS011;8864;51.970;4.614;2022-11-14T08:09:33;31.58;;;6.43;;
17494;SDS011;8864;51.970;4.614;2022-11-14T08:12:00;23.73;;;5.60;;
17494;SDS011;8864;51.970;4.614;2022-11-14T08:14:27;29.17;;;5.65;;
17494;SDS011;8864;51.970;4.614;2022-11-14T08:16:54;21.58;;;5.18;;
17494;SDS011;8864;51.970;4.614;2022-11-14T08:19:21;30.90;;;5.45;;
17494;SDS011;8864;51.970;4.614;2022-11-14T08:21:49;20.88;;;4.65;;
17494;SDS011;8864;51.970;4.614;2022-11-14T08:24:16;20.45;;;5.45;;
17494;SDS011;8864;51.970;4.614;2022-11-14T08:26:43;18.60;;;5.13;;
17494;SDS011;8864;51.970;4.614;2022-11-14T08:29:09;16.85;;;5.00;;
17494;SDS011;8864;51.970;4.614;2022-11-14T08:31:36;16.08;;;5.35;;
17494;SDS011;8864;51.970;4.614;2022-11-14T08:34:03;25.13;;;5.50;;
17494;SDS011;8864;51.970;4.614;2022-11-14T08:36:30;22.65;;;5.47;;
17494;SDS011;8864;51.970;4.614;2022-11-14T08:38:58;19.60;;;4.95;;
17494;SDS011;8864;51.970;4.614;2022-11-14T08:41:25;163.00;;;30.48;;
17494;SDS011;8864;51.970;4.614;2022-11-14T08:43:51;72.93;;;14.20;;
17494;SDS011;8864;51.970;4.614;2022-11-14T08:46:18;58.13;;;11.38;;
17494;SDS011;8864;51.970;4.614;2022-11-14T08:48:51;64.03;;;13.10;;
17494;SDS011;8864;51.970;4.614;2022-11-14T08:51:18;60.47;;;12.68;;
17494;SDS011;8864;51.970;4.614;2022-11-14T08:53:44;48.00;;;10.65;;
17494;SDS011;8864;51.970;4.614;2022-11-14T08:56:12;56.17;;;11.82;;
17494;SDS011;8864;51.970;4.614;2022-11-14T08:58:39;46.72;;;10.45;;
17494;SDS011;8864;51.970;4.614;2022-11-14T09:01:06;35.88;;;9.43;;
17494;SDS011;8864;51.970;4.614;2022-11-14T09:03:33;33.30;;;9.93;;
17494;SDS011;8864;51.970;4.614;2022-11-14T09:06:00;27.42;;;8.38;;
17494;SDS011;8864;51.970;4.614;2022-11-14T09:08:28;32.38;;;8.70;;
17494;SDS011;8864;51.970;4.614;2022-11-14T09:10:58;31.55;;;8.60;;
17494;SDS011;8864;51.970;4.614;2022-11-14T09:13:27;23.52;;;7.15;;
17494;SDS011;8864;51.970;4.614;2022-11-14T09:15:56;22.20;;;7.35;;
17494;SDS011;8864;51.970;4.614;2022-11-14T09:18:23;22.63;;;8.18;;
17494;SDS011;8864;51.970;4.614;2022-11-14T09:20:50;18.40;;;6.57;;
17494;SDS011;8864;51.970;4.614;2022-11-14T09:23:17;25.00;;;6.40;;
17494;SDS011;8864;51.970;4.614;2022-11-14T09:25:43;20.13;;;6.18;;
17494;SDS011;8864;51.970;4.614;2022-11-14T09:28:10;17.05;;;6.75;;
17494;SDS011;8864;51.970;4.614;2022-11-14T09:30:38;14.48;;;6.25;;
17494;SDS011;8864;51.970;4.614;2022-11-14T09:33:06;11.93;;;5.30;;
17494;SDS011;8864;51.970;4.614;2022-11-14T09:35:32;15.52;;;5.25;;
17494;SDS011;8864;51.970;4.614;2022-11-14T09:38:00;13.48;;;5.45;;
17494;SDS011;8864;51.970;4.614;2022-11-14T09:40:29;13.30;;;5.30;;
17494;SDS011;8864;51.970;4.614;2022-11-14T09:43:10;11.15;;;5.30;;
17494;SDS011;8864;51.970;4.614;2022-11-14T09:45:49;9.70;;;5.28;;
17494;SDS011;8864;51.970;4.614;2022-11-14T09:48:18;11.98;;;5.20;;
17494;SDS011;8864;51.970;4.614;2022-11-14T09:50:50;10.45;;;5.32;;
17494;SDS011;8864;51.970;4.614;2022-11-14T09:53:30;11.70;;;5.50;;
17494;SDS011;8864;51.970;4.614;2022-11-14T09:55:59;11.23;;;4.78;;
17494;SDS011;8864;51.970;4.614;2022-11-14T09:58:26;10.90;;;5.18;;
17494;SDS011;8864;51.970;4.614;2022-11-14T10:00:55;10.95;;;5.03;;
17494;SDS011;8864;51.970;4.614;2022-11-14T10:03:31;12.77;;;4.35;;
17494;SDS011;8864;51.970;4.614;2022-11-14T10:06:16;8.93;;;4.60;;
17494;SDS011;8864;51.970;4.614;2022-11-14T10:08:54;9.57;;;4.47;;
17494;SDS011;8864;51.970;4.614;2022-11-14T10:11:41;7.78;;;4.28;;
17494;SDS011;8864;51.970;4.614;2022-11-14T10:14:31;15.00;;;4.93;;
17494;SDS011;8864;51.970;4.614;2022-11-14T10:17:20;10.45;;;4.45;;
17494;SDS011;8864;51.970;4.614;2022-11-14T10:20:07;10.85;;;4.38;;
17494;SDS011;8864;51.970;4.614;2022-11-14T10:22:47;8.05;;;4.05;;
17494;SDS011;8864;51.970;4.614;2022-11-14T10:25:37;9.40;;;4.43;;
17494;SDS011;8864;51.970;4.614;2022-11-14T10:28:33;7.82;;;4.35;;
17494;SDS011;8864;51.970;4.614;2022-11-14T10:31:13;8.48;;;4.40;;
17494;SDS011;8864;51.970;4.614;2022-11-14T10:33:58;7.72;;;4.35;;
17494;SDS011;8864;51.970;4.614;2022-11-14T10:39:22;9.02;;;4.25;;
17494;SDS011;8864;51.970;4.614;2022-11-14T10:41:55;7.95;;;3.65;;
17494;SDS011;8864;51.970;4.614;2022-11-14T10:44:28;6.70;;;4.00;;
17494;SDS011;8864;51.970;4.614;2022-11-14T10:47:00;8.48;;;4.22;;
17494;SDS011;8864;51.970;4.614;2022-11-14T10:49:31;8.90;;;3.97;;
17494;SDS011;8864;51.970;4.614;2022-11-14T10:52:02;8.43;;;3.92;;
17494;SDS011;8864;51.970;4.614;2022-11-14T10:54:32;6.72;;;4.07;;
17494;SDS011;8864;51.970;4.614;2022-11-14T10:57:11;5.40;;;3.88;;
17494;SDS011;8864;51.970;4.614;2022-11-14T10:59:40;6.95;;;3.90;;
17494;SDS011;8864;51.970;4.614;2022-11-14T11:02:08;7.03;;;3.67;;
17494;SDS011;8864;51.970;4.614;2022-11-14T11:04:37;8.98;;;4.03;;
17494;SDS011;8864;51.970;4.614;2022-11-14T11:10:18;8.50;;;4.15;;
17494;SDS011;8864;51.970;4.614;2022-11-14T11:13:04;11.90;;;4.60;;
17494;SDS011;8864;51.970;4.614;2022-11-14T11:15:37;14.65;;;4.20;;
17494;SDS011;8864;51.970;4.614;2022-11-14T11:18:18;10.60;;;3.85;;
17494;SDS011;8864;51.970;4.614;2022-11-14T11:21:01;7.57;;;3.85;;
17494;SDS011;8864;51.970;4.614;2022-11-14T11:23:33;6.97;;;3.70;;
17494;SDS011;8864;51.970;4.614;2022-11-14T11:26:00;8.75;;;3.63;;
17494;SDS011;8864;51.970;4.614;2022-11-14T11:28:32;7.43;;;4.28;;
17494;SDS011;8864;51.970;4.614;2022-11-14T11:31:00;7.25;;;3.92;;
17494;SDS011;8864;51.970;4.614;2022-11-14T11:33:28;9.07;;;3.88;;
17494;SDS011;8864;51.970;4.614;2022-11-14T11:35:56;10.88;;;4.25;;
17494;SDS011;8864;51.970;4.614;2022-11-14T11:38:27;6.82;;;3.85;;
17494;SDS011;8864;51.970;4.614;2022-11-14T11:40:58;6.50;;;3.80;;
17494;SDS011;8864;51.970;4.614;2022-11-14T11:43:33;5.13;;;3.28;;
17494;SDS011;8864;51.970;4.614;2022-11-14T11:46:07;7.03;;;3.78;;
17494;SDS011;8864;51.970;4.614;2022-11-14T11:48:40;16.92;;;4.25;;
17494;SDS011;8864;51.970;4.614;2022-11-14T11:51:11;9.52;;;3.65;;
17494;SDS011;8864;51.970;4.614;2022-11-14T11:53:45;9.75;;;3.83;;
17494;SDS011;8864;51.970;4.614;2022-11-14T11:56:16;9.23;;;3.65;;
17494;SDS011;8864;51.970;4.614;2022-11-14T11:58:48;8.55;;;4.00;;
17494;SDS011;8864;51.970;4.614;2022-11-14T12:01:17;8.75;;;3.75;;
17494;SDS011;8864;51.970;4.614;2022-11-14T12:03:45;8.23;;;3.42;;
17494;SDS011;8864;51.970;4.614;2022-11-14T12:06:14;10.70;;;3.90;;
17494;SDS011;8864;51.970;4.614;2022-11-14T12:08:53;10.07;;;3.65;;
17494;SDS011;8864;51.970;4.614;2022-11-14T12:11:40;12.68;;;3.75;;
17494;SDS011;8864;51.970;4.614;2022-11-14T12:14:15;7.45;;;3.50;;
17494;SDS011;8864;51.970;4.614;2022-11-14T12:17:18;15.25;;;4.03;;
17494;SDS011;8864;51.970;4.614;2022-11-14T12:23:05;6.43;;;3.88;;
17494;SDS011;8864;51.970;4.614;2022-11-14T12:26:07;6.03;;;3.63;;
17494;SDS011;8864;51.970;4.614;2022-11-14T12:31:37;8.13;;;3.90;;
17494;SDS011;8864;51.970;4.614;2022-11-14T12:34:06;10.43;;;4.40;;
17494;SDS011;8864;51.970;4.614;2022-11-14T12:36:44;8.75;;;3.55;;
17494;SDS011;8864;51.970;4.614;2022-11-14T12:39:20;8.70;;;3.83;;
17494;SDS011;8864;51.970;4.614;2022-11-14T12:41:50;11.30;;;3.35;;
17494;SDS011;8864;51.970;4.614;2022-11-14T12:44:33;10.02;;;4.00;;
17494;SDS011;8864;51.970;4.614;2022-11-14T12:47:10;10.95;;;3.50;;
17494;SDS011;8864;51.970;4.614;2022-11-14T12:49:58;12.90;;;4.30;;
17494;SDS011;8864;51.970;4.614;2022-11-14T12:52:45;7.47;;;3.65;;
17494;SDS011;8864;51.970;4.614;2022-11-14T12:58:25;10.95;;;4.28;;
17494;SDS011;8864;51.970;4.614;2022-11-14T13:01:06;11.52;;;3.85;;
17494;SDS011;8864;51.970;4.614;2022-11-14T13:03:49;8.70;;;3.88;;
17494;SDS011;8864;51.970;4.614;2022-11-14T13:06:28;8.25;;;3.85;;
17494;SDS011;8864;51.970;4.614;2022-11-14T13:09:17;9.02;;;3.83;;
17494;SDS011;8864;51.970;4.614;2022-11-14T13:11:57;7.82;;;4.57;;
17494;SDS011;8864;51.970;4.614;2022-11-14T13:15:09;7.28;;;4.20;;
17494;SDS011;8864;51.970;4.614;2022-11-14T13:18:13;8.43;;;3.65;;
17494;SDS011;8864;51.970;4.614;2022-11-14T13:21:01;6.13;;;3.70;;
17494;SDS011;8864;51.970;4.614;2022-11-14T13:23:56;8.90;;;3.85;;
17494;SDS011;8864;51.970;4.614;2022-11-14T13:26:36;6.38;;;3.70;;
17494;SDS011;8864;51.970;4.614;2022-11-14T13:38:33;6.65;;;3.50;;
17494;SDS011;8864;51.970;4.614;2022-11-14T13:41:46;6.28;;;3.80;;
17494;SDS011;8864;51.970;4.614;2022-11-14T13:44:47;7.38;;;3.42;;
17494;SDS011;8864;51.970;4.614;2022-11-14T13:47:33;10.25;;;3.15;;
17494;SDS011;8864;51.970;4.614;2022-11-14T13:50:13;7.10;;;3.83;;
17494;SDS011;8864;51.970;4.614;2022-11-14T13:52:43;10.57;;;4.25;;
17494;SDS011;8864;51.970;4.614;2022-11-14T13:55:17;19.77;;;4.00;;
17494;SDS011;8864;51.970;4.614;2022-11-14T13:57:49;9.52;;;3.70;;
17494;SDS011;8864;51.970;4.614;2022-11-14T14:00:27;9.45;;;3.30;;
17494;SDS011;8864;51.970;4.614;2022-11-14T14:03:00;11.35;;;4.10;;
17494;SDS011;8864;51.970;4.614;2022-11-14T14:05:41;7.95;;;3.72;;
17494;SDS011;8864;51.970;4.614;2022-11-14T14:08:25;11.73;;;4.00;;
17494;SDS011;8864;51.970;4.614;2022-11-14T14:11:06;9.52;;;3.40;;
17494;SDS011;8864;51.970;4.614;2022-11-14T14:13:52;12.55;;;3.85;;
17494;SDS011;8864;51.970;4.614;2022-11-14T14:16:30;10.27;;;4.00;;
17494;SDS011;8864;51.970;4.614;2022-11-14T14:19:04;4.82;;;3.17;;
17494;SDS011;8864;51.970;4.614;2022-11-14T14:21:39;8.48;;;3.72;;
17494;SDS011;8864;51.970;4.614;2022-11-14T14:24:16;8.57;;;3.08;;
17494;SDS011;8864;51.970;4.614;2022-11-14T14:26:58;11.70;;;3.47;;
17494;SDS011;8864;51.970;4.614;2022-11-14T14:29:31;6.25;;;3.20;;
17494;SDS011;8864;51.970;4.614;2022-11-14T14:32:05;9.15;;;3.33;;
17494;SDS011;8864;51.970;4.614;2022-11-14T14:34:36;12.43;;;3.38;;
17494;SDS011;8864;51.970;4.614;2022-11-14T14:37:13;8.50;;;3.22;;
17494;SDS011;8864;51.970;4.614;2022-11-14T14:39:55;8.63;;;3.00;;
17494;SDS011;8864;51.970;4.614;2022-11-14T14:42:23;7.85;;;3.25;;
17494;SDS011;8864;51.970;4.614;2022-11-14T14:44:50;6.28;;;2.75;;
17494;SDS011;8864;51.970;4.614;2022-11-14T14:47:25;5.57;;;2.78;;
17494;SDS011;8864;51.970;4.614;2022-11-14T14:50:06;6.43;;;2.75;;
17494;SDS011;8864;51.970;4.614;2022-11-14T14:52:41;4.72;;;2.70;;
17494;SDS011;8864;51.970;4.614;2022-11-14T14:55:17;5.38;;;2.80;;
17494;SDS011;8864;51.970;4.614;2022-11-14T14:57:46;6.95;;;3.20;;
17494;SDS011;8864;51.970;4.614;2022-11-14T15:00:16;8.88;;;2.83;;
17494;SDS011;8864;51.970;4.614;2022-11-14T15:02:45;8.93;;;3.25;;
17494;SDS011;8864;51.970;4.614;2022-11-14T15:05:20;5.88;;;2.90;;
17494;SDS011;8864;51.970;4.614;2022-11-14T15:07:47;6.28;;;3.42;;
17494;SDS011;8864;51.970;4.614;2022-11-14T15:10:20;5.28;;;2.72;;
17494;SDS011;8864;51.970;4.614;2022-11-14T15:12:49;4.35;;;2.67;;
17494;SDS011;8864;51.970;4.614;2022-11-14T15:15:18;7.35;;;2.85;;
17494;SDS011;8864;51.970;4.614;2022-11-14T15:17:47;7.35;;;2.92;;
17494;SDS011;8864;51.970;4.614;2022-11-14T15:20:21;3.58;;;2.42;;
17494;SDS011;8864;51.970;4.614;2022-11-14T15:23:03;4.18;;;2.90;;
17494;SDS011;8864;51.970;4.614;2022-11-14T15:25:32;7.20;;;2.75;;
17494;SDS011;8864;51.970;4.614;2022-11-14T15:27:59;3.38;;;2.42;;
17494;SDS011;8864;51.970;4.614;2022-11-14T15:30:27;5.03;;;2.17;;
17494;SDS011;8864;51.970;4.614;2022-11-14T15:32:56;3.95;;;2.50;;
17494;SDS011;8864;51.970;4.614;2022-11-14T15:35:31;4.57;;;2.53;;
17494;SDS011;8864;51.970;4.614;2022-11-14T15:38:03;4.15;;;2.28;;
17494;SDS011;8864;51.970;4.614;2022-11-14T15:40:33;4.28;;;2.50;;
17494;SDS011;8864;51.970;4.614;2022-11-14T15:46:03;4.30;;;2.38;;